createdAt,value
2018-03-28T00:00:36.301Z,140.93
2018-03-28T00:03:03.746Z,163.13
2018-03-28T00:05:31.221Z,147.33
2018-03-28T00:07:58.780Z,138.60
2018-03-28T00:10:26.235Z,147.57
2018-03-28T00:12:53.795Z,190.33
2018-03-28T00:15:21.441Z,126.40
2018-03-28T00:17:48.852Z,147.93
2018-03-28T00:20:16.285Z,155.67
2018-03-28T00:22:43.728Z,109.97
2018-03-28T00:25:11.188Z,126.90
2018-03-28T00:27:38.624Z,112.80
2018-03-28T00:30:06.092Z,187.40
2018-03-28T00:32:33.544Z,176.53
2018-03-28T00:35:00.999Z,164.93
2018-03-28T00:37:28.466Z,256.27
2018-03-28T00:39:55.898Z,276.83
2018-03-28T00:42:23.439Z,244.53
2018-03-28T00:44:50.940Z,246.40
2018-03-28T00:47:18.397Z,176.80
2018-03-28T00:49:45.835Z,269.23
2018-03-28T00:52:13.317Z,213.57
2018-03-28T00:54:40.778Z,236.57
2018-03-28T00:57:08.213Z,187.03
2018-03-28T00:59:35.692Z,251.60
2018-03-28T01:02:03.145Z,187.70
2018-03-28T01:04:30.607Z,242.63
2018-03-28T01:06:58.249Z,219.47
2018-03-28T01:09:25.725Z,303.17
2018-03-28T01:11:53.165Z,235.90
2018-03-28T01:14:20.604Z,271.53
2018-03-28T01:16:48.184Z,212.93
2018-03-28T01:19:15.640Z,237.50
2018-03-28T01:21:43.092Z,285.60
2018-03-28T01:24:10.520Z,198.37
2018-03-28T01:26:38.017Z,244.03
2018-03-28T01:29:05.568Z,184.90
2018-03-28T01:31:33.126Z,261.13
2018-03-28T01:34:00.686Z,164.70
2018-03-28T01:36:28.105Z,218.97
2018-03-28T01:38:56.329Z,262.47
2018-03-28T01:41:23.781Z,231.47
2018-03-28T01:43:51.229Z,237.57
2018-03-28T01:46:18.689Z,244.57
2018-03-28T01:48:46.868Z,189.43
2018-03-28T01:51:14.332Z,195.30
2018-03-28T01:53:41.795Z,201.87
2018-03-28T01:56:09.240Z,242.83
2018-03-28T01:58:36.689Z,158.97
2018-03-28T02:01:04.121Z,178.93
2018-03-28T02:03:31.708Z,317.30
2018-03-28T02:05:59.173Z,239.53
2018-03-28T02:08:26.616Z,355.67
2018-03-28T02:10:54.040Z,285.53
2018-03-28T02:13:22.320Z,299.70
2018-03-28T02:15:50.632Z,249.87
2018-03-28T02:18:18.045Z,218.67
2018-03-28T02:20:46.263Z,231.73
2018-03-28T02:23:13.720Z,188.33
2018-03-28T02:25:41.184Z,181.13
2018-03-28T02:28:08.653Z,165.37
2018-03-28T02:30:36.195Z,140.73
2018-03-28T02:33:03.733Z,174.97
2018-03-28T02:35:31.157Z,168.07
2018-03-28T02:37:59.363Z,170.03
2018-03-28T02:40:26.796Z,159.83
2018-03-28T02:42:55.097Z,154.83
2018-03-28T02:45:22.505Z,166.33
2018-03-28T02:47:49.942Z,155.30
2018-03-28T02:50:17.571Z,170.03
2018-03-28T02:52:45.028Z,131.07
2018-03-28T02:55:12.441Z,147.07
2018-03-28T02:57:40.679Z,163.93
2018-03-28T03:00:08.136Z,158.23
2018-03-28T03:02:36.296Z,176.70
2018-03-28T03:05:03.757Z,188.03
2018-03-28T03:07:31.190Z,187.27
2018-03-28T03:09:58.616Z,171.93
2018-03-28T03:12:26.938Z,194.13
2018-03-28T03:14:54.350Z,176.63
2018-03-28T03:17:22.577Z,163.70
2018-03-28T03:19:50.039Z,155.27
2018-03-28T03:22:17.469Z,152.87
2018-03-28T03:24:44.955Z,164.90
2018-03-28T03:27:12.397Z,171.67
2018-03-28T03:29:39.825Z,169.27
2018-03-28T03:32:08.039Z,148.93
2018-03-28T03:34:35.496Z,158.13
2018-03-28T03:37:02.990Z,166.57
2018-03-28T03:39:30.352Z,160.53
2018-03-28T03:41:57.792Z,177.07
2018-03-28T03:44:25.237Z,159.73
2018-03-28T03:46:52.670Z,171.60
2018-03-28T03:49:20.140Z,179.03
2018-03-28T03:51:47.584Z,183.50
2018-03-28T03:54:15.049Z,196.73
2018-03-28T03:56:42.497Z,194.97
2018-03-28T03:59:10.064Z,183.83
2018-03-28T04:01:37.476Z,159.87
2018-03-28T04:04:05.700Z,164.40
2018-03-28T04:06:33.147Z,175.60
2018-03-28T04:09:00.561Z,172.17
2018-03-28T04:11:28.789Z,192.23
2018-03-28T04:13:56.216Z,173.70
2018-03-28T04:16:23.647Z,187.27
2018-03-28T04:18:51.970Z,163.97
2018-03-28T04:21:19.432Z,184.93
2018-03-28T04:23:46.897Z,152.73
2018-03-28T04:26:14.339Z,160.37
2018-03-28T04:28:41.768Z,163.70
2018-03-28T04:31:09.964Z,175.17
2018-03-28T04:33:37.436Z,162.73
2018-03-28T04:36:04.868Z,144.33
2018-03-28T04:38:32.296Z,147.67
2018-03-28T04:41:00.621Z,144.67
2018-03-28T04:43:28.091Z,138.60
2018-03-28T04:45:55.638Z,132.30
2018-03-28T04:48:23.068Z,131.87
2018-03-28T04:50:50.567Z,115.10
2018-03-28T04:53:18.020Z,128.93
2018-03-28T04:55:45.572Z,128.57
2018-03-28T04:58:12.985Z,119.17
2018-03-28T05:00:41.181Z,113.77
2018-03-28T05:03:08.637Z,102.70
2018-03-28T05:05:36.844Z,92.83
2018-03-28T05:08:04.273Z,103.63
2018-03-28T05:10:31.723Z,104.43
2018-03-28T05:12:59.155Z,110.47
2018-03-28T05:15:26.664Z,108.13
2018-03-28T05:17:54.128Z,108.17
2018-03-28T05:20:21.539Z,98.17
2018-03-28T05:22:49.736Z,113.63
2018-03-28T05:25:17.226Z,104.40
2018-03-28T05:27:44.661Z,86.03
2018-03-28T05:30:12.128Z,95.77
2018-03-28T05:32:39.577Z,92.13
2018-03-28T05:35:07.033Z,95.40
2018-03-28T05:37:34.508Z,78.27
2018-03-28T05:40:01.962Z,87.10
2018-03-28T05:42:29.388Z,85.10
2018-03-28T05:44:56.824Z,76.23
2018-03-28T05:47:25.146Z,78.83
2018-03-28T05:49:52.580Z,74.50
2018-03-28T05:52:20.061Z,73.83
2018-03-28T05:54:47.613Z,75.30
2018-03-28T05:57:15.030Z,72.73
2018-03-28T05:59:43.240Z,77.00
2018-03-28T06:02:10.807Z,68.83
2018-03-28T06:04:38.224Z,72.60
2018-03-28T06:07:06.418Z,65.93
2018-03-28T06:09:33.856Z,60.83
2018-03-28T06:12:02.051Z,62.97
2018-03-28T06:14:29.523Z,68.20
2018-03-28T06:16:56.979Z,65.03
2018-03-28T06:19:24.386Z,62.47
2018-03-28T06:21:52.588Z,67.93
2018-03-28T06:24:20.805Z,68.83
2018-03-28T06:26:48.253Z,62.53
2018-03-28T06:29:15.672Z,60.27
2018-03-28T06:31:43.122Z,63.17
2018-03-28T06:34:11.308Z,52.47
2018-03-28T06:36:38.752Z,53.13
2018-03-28T06:39:06.964Z,61.83
2018-03-28T06:41:34.409Z,53.77
2018-03-28T06:44:01.824Z,49.43
2018-03-28T06:46:30.050Z,51.60
2018-03-28T06:48:57.460Z,55.37
2018-03-28T06:51:24.900Z,47.87
2018-03-28T06:53:52.336Z,47.27
2018-03-28T06:56:19.880Z,48.43
2018-03-28T06:58:47.295Z,49.53
2018-03-28T07:01:15.516Z,46.20
2018-03-28T07:03:42.974Z,54.10
2018-03-28T07:06:10.436Z,49.93
2018-03-28T07:08:37.880Z,51.17
2018-03-28T07:11:05.445Z,46.10
2018-03-28T07:13:32.908Z,48.37
2018-03-28T07:16:00.355Z,54.50
2018-03-28T07:18:27.788Z,50.07
2018-03-28T07:20:55.990Z,46.73
2018-03-28T07:23:23.474Z,47.83
2018-03-28T07:25:51.008Z,42.83
2018-03-28T07:28:18.445Z,44.33
2018-03-28T07:30:45.897Z,45.90
2018-03-28T07:33:14.228Z,47.27
2018-03-28T07:35:41.661Z,40.43
2018-03-28T07:38:09.110Z,40.17
2018-03-28T07:40:36.590Z,43.23
2018-03-28T07:43:04.028Z,38.27
2018-03-28T07:45:31.481Z,41.37
2018-03-28T07:47:59.018Z,38.17
2018-03-28T07:50:26.380Z,42.37
2018-03-28T07:52:53.864Z,41.93
2018-03-28T07:55:21.309Z,38.83
2018-03-28T07:57:48.725Z,44.87
2018-03-28T08:00:16.963Z,38.33
2018-03-28T08:02:44.400Z,37.90
2018-03-28T08:05:11.857Z,45.03
2018-03-28T08:07:39.284Z,48.50
2018-03-28T08:10:06.770Z,36.67
2018-03-28T08:12:34.185Z,43.50
2018-03-28T08:15:02.504Z,40.63
2018-03-28T08:17:29.960Z,40.97
2018-03-28T08:19:57.520Z,41.20
2018-03-28T08:22:24.980Z,45.30
2018-03-28T08:24:52.413Z,42.03
2018-03-28T08:27:19.909Z,46.57
2018-03-28T08:29:47.372Z,42.87
2018-03-28T08:32:14.827Z,44.07
2018-03-28T08:34:42.367Z,45.03
2018-03-28T08:37:09.793Z,44.97
2018-03-28T08:39:37.984Z,44.73
2018-03-28T08:42:05.416Z,40.93
2018-03-28T08:44:33.637Z,40.70
2018-03-28T08:47:01.102Z,45.70
2018-03-28T08:49:28.648Z,46.10
2018-03-28T08:51:56.112Z,40.67
2018-03-28T08:54:23.561Z,45.87
2018-03-28T08:56:51.122Z,43.70
2018-03-28T08:59:18.687Z,50.83
2018-03-28T09:01:46.142Z,42.07
2018-03-28T09:04:13.599Z,45.67
2018-03-28T09:06:41.034Z,38.17
2018-03-28T09:09:08.457Z,45.50
2018-03-28T09:11:35.949Z,42.93
2018-03-28T09:14:03.434Z,38.03
2018-03-28T09:16:30.868Z,40.67
2018-03-28T09:18:58.344Z,43.80
2018-03-28T09:21:25.797Z,43.00
2018-03-28T09:23:53.250Z,41.80
2018-03-28T09:26:20.713Z,46.20
2018-03-28T09:28:48.182Z,40.33
2018-03-28T09:31:15.608Z,39.60
2018-03-28T09:33:43.058Z,45.07
2018-03-28T09:36:11.254Z,44.50
2018-03-28T09:38:38.703Z,45.63
2018-03-28T09:41:06.173Z,46.10
2018-03-28T09:43:33.628Z,45.40
2018-03-28T09:46:01.060Z,50.50
2018-03-28T09:48:28.488Z,49.47
2018-03-28T09:50:56.707Z,41.97
2018-03-28T09:53:24.167Z,47.03
2018-03-28T09:55:51.641Z,50.63
2018-03-28T09:58:19.076Z,42.03
2018-03-28T10:00:46.497Z,43.70
2018-03-28T10:03:17.257Z,48.83
2018-03-28T10:05:45.561Z,51.57
2018-03-28T10:08:13.014Z,53.27
2018-03-28T10:10:40.469Z,51.33
2018-03-28T10:13:07.916Z,53.37
2018-03-28T10:15:35.374Z,51.53
2018-03-28T10:18:02.815Z,50.63
2018-03-28T10:20:31.003Z,48.43
2018-03-28T10:22:58.432Z,47.83
2018-03-28T10:25:26.685Z,41.80
2018-03-28T10:27:54.102Z,44.97
2018-03-28T10:30:22.368Z,44.23
2018-03-28T10:32:49.796Z,47.97
2018-03-28T10:35:18.001Z,51.17
2018-03-28T10:37:45.436Z,54.13
2018-03-28T10:40:12.927Z,56.73
2018-03-28T10:42:40.370Z,51.53
2018-03-28T10:45:07.837Z,47.63
2018-03-28T10:47:35.270Z,50.90
2018-03-28T10:50:02.753Z,49.83
2018-03-28T10:52:30.203Z,45.90
2018-03-28T10:54:57.670Z,55.33
2018-03-28T10:57:25.127Z,49.23
2018-03-28T10:59:52.556Z,51.07
2018-03-28T11:02:19.986Z,51.20
2018-03-28T11:04:48.192Z,53.57
2018-03-28T11:07:15.634Z,53.00
2018-03-28T11:09:43.830Z,50.63
2018-03-28T11:12:11.274Z,45.97
2018-03-28T11:14:38.749Z,40.93
2018-03-28T11:17:06.182Z,44.03
2018-03-28T11:19:33.731Z,49.20
2018-03-28T11:22:01.179Z,48.33
2018-03-28T11:24:28.642Z,46.17
2018-03-28T11:26:56.101Z,47.17
2018-03-28T11:29:23.533Z,48.70
2018-03-28T11:31:50.953Z,39.13
2018-03-28T11:34:18.472Z,41.90
2018-03-28T11:36:45.904Z,42.03
2018-03-28T11:39:13.336Z,39.60
2018-03-28T11:41:41.666Z,42.90
2018-03-28T11:44:09.129Z,41.10
2018-03-28T11:46:36.585Z,41.37
2018-03-28T11:49:04.129Z,39.83
2018-03-28T11:51:31.556Z,40.83
2018-03-28T11:53:59.762Z,38.80
2018-03-28T11:56:27.220Z,41.40
2018-03-28T11:58:54.673Z,38.97
2018-03-28T12:01:22.085Z,45.63
2018-03-28T12:03:50.291Z,42.80
2018-03-28T12:06:17.716Z,47.43
2018-03-28T12:08:45.224Z,44.17
2018-03-28T12:11:12.674Z,51.40
2018-03-28T12:13:40.109Z,45.13
2018-03-28T12:16:08.373Z,46.97
2018-03-28T12:18:36.601Z,47.17
2018-03-28T12:21:04.052Z,51.67
2018-03-28T12:23:31.477Z,57.67
2018-03-28T12:25:58.996Z,57.93
2018-03-28T12:28:27.266Z,55.80
2018-03-28T12:30:54.735Z,57.80
2018-03-28T12:33:22.194Z,61.37
2018-03-28T12:35:49.620Z,45.13
2018-03-28T12:38:17.054Z,50.57
2018-03-28T12:40:45.266Z,47.37
2018-03-28T12:43:12.697Z,44.70
2018-03-28T12:45:41.000Z,42.70
2018-03-28T12:48:08.436Z,45.50
2018-03-28T12:50:36.642Z,45.80
2018-03-28T12:53:04.112Z,41.87
2018-03-28T12:55:31.576Z,41.63
2018-03-28T12:57:59.114Z,46.90
2018-03-28T13:00:26.569Z,41.50
2018-03-28T13:02:54.025Z,40.50
2018-03-28T13:05:21.482Z,46.47
2018-03-28T13:07:48.948Z,37.83
2018-03-28T13:10:16.494Z,24.13
2018-03-28T13:12:43.924Z,22.57
2018-03-28T13:15:11.424Z,27.97
2018-03-28T13:17:38.866Z,29.83
2018-03-28T13:20:06.288Z,20.53
2018-03-28T13:22:34.507Z,25.20
2018-03-28T13:25:01.968Z,33.83
2018-03-28T13:27:29.435Z,25.83
2018-03-28T13:29:57.076Z,32.20
2018-03-28T13:32:24.547Z,31.60
2018-03-28T13:34:51.997Z,30.27
2018-03-28T13:37:19.430Z,40.70
2018-03-28T13:39:46.871Z,36.30
2018-03-28T13:42:15.056Z,35.43
2018-03-28T13:44:42.484Z,35.80
2018-03-28T13:47:10.708Z,35.93
2018-03-28T13:49:38.167Z,31.00
2018-03-28T13:52:05.621Z,32.47
2018-03-28T13:54:33.073Z,34.73
2018-03-28T13:57:00.629Z,30.83
2018-03-28T13:59:28.048Z,35.47
2018-03-28T14:01:56.276Z,29.63
2018-03-28T14:04:23.716Z,20.00
2018-03-28T14:06:51.148Z,18.13
2018-03-28T14:09:19.465Z,20.20
2018-03-28T14:11:46.931Z,16.60
2018-03-28T14:14:14.352Z,21.43
2018-03-28T14:16:41.792Z,19.70
2018-03-28T14:19:09.996Z,18.03
2018-03-28T14:21:37.504Z,22.87
2018-03-28T14:24:04.924Z,20.47
2018-03-28T14:26:32.367Z,18.53
2018-03-28T14:28:59.824Z,21.07
2018-03-28T14:31:27.289Z,20.37
2018-03-28T14:33:54.761Z,19.43
2018-03-28T14:36:22.220Z,19.80
2018-03-28T14:38:49.681Z,20.93
2018-03-28T14:41:17.232Z,18.93
2018-03-28T14:43:44.673Z,19.40
2018-03-28T14:46:12.131Z,21.37
2018-03-28T14:48:39.547Z,25.03
2018-03-28T14:51:07.769Z,20.97
2018-03-28T14:53:35.320Z,19.50
2018-03-28T14:56:02.791Z,20.20
2018-03-28T14:58:30.243Z,21.93
2018-03-28T15:00:57.691Z,19.33
2018-03-28T15:03:25.129Z,28.23
2018-03-28T15:05:52.612Z,22.07
2018-03-28T15:08:20.061Z,21.40
2018-03-28T15:10:47.499Z,22.67
2018-03-28T15:13:14.995Z,24.53
2018-03-28T15:15:42.507Z,20.47
2018-03-28T15:18:09.962Z,22.63
2018-03-28T15:20:37.430Z,26.03
2018-03-28T15:23:04.880Z,21.07
2018-03-28T15:25:32.322Z,24.70
2018-03-28T15:27:59.749Z,17.87
2018-03-28T15:30:27.242Z,25.57
2018-03-28T15:32:54.680Z,21.23
2018-03-28T15:35:22.104Z,38.33
2018-03-28T15:37:50.321Z,28.23
2018-03-28T15:40:17.747Z,20.80
2018-03-28T15:42:45.951Z,21.57
2018-03-28T15:45:13.416Z,19.40
2018-03-28T15:47:40.970Z,20.30
2018-03-28T15:50:08.440Z,23.33
2018-03-28T15:52:35.883Z,26.50
2018-03-28T15:55:03.341Z,25.27
2018-03-28T15:57:30.766Z,26.23
2018-03-28T15:59:59.016Z,20.27
2018-03-28T16:02:26.458Z,17.70
2018-03-28T16:04:53.910Z,25.97
2018-03-28T16:07:21.348Z,19.60
2018-03-28T16:09:48.783Z,17.73
2018-03-28T16:12:16.218Z,21.50
2018-03-28T16:14:43.657Z,15.90
2018-03-28T16:17:11.933Z,19.70
2018-03-28T16:19:39.346Z,19.87
2018-03-28T16:22:06.833Z,19.50
2018-03-28T16:24:34.272Z,18.83
2018-03-28T16:27:01.718Z,20.40
2018-03-28T16:29:29.185Z,14.33
2018-03-28T16:31:56.631Z,14.10
2018-03-28T16:34:24.052Z,15.13
2018-03-28T16:36:52.264Z,16.30
2018-03-28T16:39:19.724Z,13.70
2018-03-28T16:41:47.165Z,13.47
2018-03-28T16:44:14.618Z,14.33
2018-03-28T16:46:42.819Z,12.40
2018-03-28T16:49:10.274Z,14.23
2018-03-28T16:51:37.724Z,15.57
2018-03-28T16:54:05.187Z,19.53
2018-03-28T16:56:32.654Z,17.83
2018-03-28T16:59:00.112Z,18.97
2018-03-28T17:01:27.552Z,20.57
2018-03-28T17:03:54.997Z,20.70
2018-03-28T17:06:22.433Z,23.27
2018-03-28T17:08:50.678Z,20.03
2018-03-28T17:11:18.085Z,14.13
2018-03-28T17:13:45.561Z,12.20
2018-03-28T17:16:13.015Z,17.10
2018-03-28T17:18:40.469Z,16.07
2018-03-28T17:21:07.940Z,17.73
2018-03-28T17:23:35.382Z,19.97
2018-03-28T17:26:02.841Z,18.57
2018-03-28T17:28:30.268Z,22.07
2018-03-28T17:30:58.487Z,23.13
2018-03-28T17:33:25.937Z,22.33
2018-03-28T17:35:53.384Z,19.87
2018-03-28T17:38:20.862Z,26.17
2018-03-28T17:40:48.312Z,21.97
2018-03-28T17:43:15.762Z,24.63
2018-03-28T17:45:43.214Z,23.73
2018-03-28T17:48:10.643Z,24.40
2018-03-28T17:50:38.871Z,26.37
2018-03-28T17:53:06.304Z,25.03
2018-03-28T17:55:33.773Z,22.13
2018-03-28T17:58:01.228Z,17.37
2018-03-28T18:00:28.668Z,16.57
2018-03-28T18:02:56.093Z,9.67
2018-03-28T18:05:24.321Z,10.93
2018-03-28T18:07:51.761Z,11.87
2018-03-28T18:10:19.180Z,8.07
2018-03-28T18:12:47.414Z,9.00
2018-03-28T18:15:14.886Z,8.10
2018-03-28T18:17:42.332Z,8.23
2018-03-28T18:20:09.793Z,9.70
2018-03-28T18:22:37.228Z,11.20
2018-03-28T18:25:04.685Z,7.10
2018-03-28T18:27:32.184Z,6.07
2018-03-28T18:29:59.569Z,6.83
2018-03-28T18:32:26.992Z,5.67
2018-03-28T18:34:54.510Z,6.63
2018-03-28T18:37:21.924Z,5.70
2018-03-28T18:39:50.162Z,5.33
2018-03-28T18:42:17.600Z,4.40
2018-03-28T18:44:45.036Z,5.63
2018-03-28T18:47:12.516Z,5.37
2018-03-28T18:49:39.973Z,5.17
2018-03-28T18:52:07.398Z,5.97
2018-03-28T18:54:35.615Z,5.20
2018-03-28T18:57:03.059Z,6.67
2018-03-28T18:59:30.526Z,5.97
2018-03-28T19:01:58.015Z,7.87
2018-03-28T19:04:25.576Z,7.77
2018-03-28T19:06:52.988Z,10.03
2018-03-28T19:09:20.401Z,8.80
2018-03-28T19:11:47.838Z,11.73
2018-03-28T19:14:15.274Z,9.67
2018-03-28T19:16:42.697Z,9.83
2018-03-28T19:19:10.124Z,11.63
2018-03-28T19:21:37.555Z,11.03
2018-03-28T19:24:04.984Z,12.27
2018-03-28T19:26:32.442Z,11.57
2018-03-28T19:28:59.852Z,12.90
2018-03-28T19:31:27.301Z,9.90
2018-03-28T19:33:54.799Z,11.10
2018-03-28T19:36:22.180Z,13.17
2018-03-28T19:38:49.645Z,10.37
2018-03-28T19:41:17.240Z,12.53
2018-03-28T19:43:44.761Z,14.30
2018-03-28T19:46:12.189Z,13.83
2018-03-28T19:48:39.629Z,13.17
2018-03-28T19:51:07.841Z,13.27
2018-03-28T19:53:35.290Z,12.13
2018-03-28T19:56:02.730Z,14.03
2018-03-28T19:58:30.221Z,11.90
2018-03-28T20:00:57.650Z,12.13
2018-03-28T20:03:25.085Z,10.73
2018-03-28T20:05:53.272Z,9.47
2018-03-28T20:08:20.696Z,9.53
2018-03-28T20:10:48.212Z,10.50
2018-03-28T20:13:15.671Z,14.07
2018-03-28T20:15:43.081Z,14.27
2018-03-28T20:18:11.308Z,12.63
2018-03-28T20:20:38.756Z,14.03
2018-03-28T20:23:06.173Z,13.60
2018-03-28T20:25:34.413Z,13.97
2018-03-28T20:28:01.848Z,15.33
2018-03-28T20:30:29.302Z,16.57
2018-03-28T20:32:56.744Z,15.50
2018-03-28T20:35:24.177Z,13.40
2018-03-28T20:37:52.378Z,19.70
2018-03-28T20:40:19.821Z,14.97
2018-03-28T20:42:47.252Z,14.50
2018-03-28T20:45:14.784Z,16.60
2018-03-28T20:47:42.248Z,14.90
2018-03-28T20:50:09.692Z,15.20
2018-03-28T20:52:37.123Z,14.67
2018-03-28T20:55:04.612Z,13.43
2018-03-28T20:57:32.154Z,15.60
2018-03-28T20:59:59.620Z,17.23
2018-03-28T21:02:27.170Z,17.60
2018-03-28T21:04:54.669Z,21.47
2018-03-28T21:07:22.125Z,24.47
2018-03-28T21:09:49.580Z,24.30
2018-03-28T21:12:17.020Z,21.93
2018-03-28T21:14:44.623Z,22.83
2018-03-28T21:17:12.841Z,18.30
2018-03-28T21:19:40.301Z,19.50
2018-03-28T21:22:07.845Z,18.33
2018-03-28T21:24:35.264Z,20.70
2018-03-28T21:27:03.517Z,17.27
2018-03-28T21:29:31.070Z,16.60
2018-03-28T21:31:58.510Z,15.20
2018-03-28T21:34:25.992Z,14.30
2018-03-28T21:36:53.419Z,13.97
2018-03-28T21:39:20.853Z,14.10
2018-03-28T21:41:48.321Z,15.07
2018-03-28T21:44:15.726Z,11.27
2018-03-28T21:46:43.348Z,11.60
2018-03-28T21:49:10.795Z,10.43
2018-03-28T21:51:38.201Z,12.67
2018-03-28T21:54:05.719Z,7.87
2018-03-28T21:56:33.154Z,9.13
2018-03-28T21:59:00.727Z,9.07
2018-03-28T22:01:28.147Z,10.67
2018-03-28T22:03:56.345Z,15.13
2018-03-28T22:06:23.781Z,12.43
2018-03-28T22:08:52.016Z,14.47
2018-03-28T22:11:19.445Z,24.83
2018-03-28T22:13:46.866Z,10.57
2018-03-28T22:16:15.073Z,10.20
2018-03-28T22:18:42.496Z,14.37
2018-03-28T22:21:10.738Z,17.03
2018-03-28T22:23:38.230Z,10.73
2018-03-28T22:26:06.493Z,13.10
2018-03-28T22:28:33.900Z,15.97
2018-03-28T22:31:01.372Z,10.57
2018-03-28T22:33:28.820Z,7.80
2018-03-28T22:35:56.256Z,9.93
2018-03-28T22:38:23.697Z,12.00
2018-03-28T22:40:51.921Z,12.47
2018-03-28T22:43:19.360Z,12.57
2018-03-28T22:45:46.789Z,14.57
2018-03-28T22:48:15.096Z,16.20
2018-03-28T22:50:42.566Z,16.87
2018-03-28T22:53:10.022Z,13.20
2018-03-28T22:55:37.480Z,20.30
2018-03-28T22:58:04.906Z,14.73
2018-03-28T23:00:32.347Z,12.73
2018-03-28T23:02:59.785Z,18.00
2018-03-28T23:05:27.211Z,13.80
2018-03-28T23:07:54.667Z,7.67
2018-03-28T23:10:22.110Z,13.93
2018-03-28T23:12:49.565Z,11.87
2018-03-28T23:15:17.030Z,11.40
2018-03-28T23:17:44.465Z,12.57
2018-03-28T23:20:11.901Z,15.33
2018-03-28T23:22:40.213Z,12.10
2018-03-28T23:25:07.621Z,9.80
2018-03-28T23:27:35.134Z,8.70
2018-03-28T23:30:02.685Z,14.50
2018-03-28T23:32:30.104Z,15.23
2018-03-28T23:34:58.316Z,17.20
2018-03-28T23:37:25.777Z,14.47
2018-03-28T23:39:53.216Z,15.90
2018-03-28T23:42:20.673Z,17.23
2018-03-28T23:44:48.873Z,17.47
2018-03-28T23:47:16.302Z,14.50
2018-03-28T23:49:43.776Z,19.93
2018-03-28T23:52:11.189Z,13.43
2018-03-28T23:54:39.412Z,16.67
2018-03-28T23:57:06.856Z,22.30
2018-03-28T23:59:34.323Z,19.07
